sensor_id;sensor_type;location;lat;lon;timestamp;temperature;humidity
65478;SHT31;53678;39.642;22.430;2022-09-09T00:02:22;21.54;72.67
65478;SHT31;53678;39.642;22.430;2022-09-09T00:04:59;21.64;72.34
65478;SHT31;53678;39.642;22.430;2022-09-09T00:07:49;21.62;72.38
65478;SHT31;53678;39.642;22.430;2022-09-09T00:10:50;21.60;72.54
65478;SHT31;53678;39.642;22.430;2022-09-09T00:13:24;21.54;72.83
65478;SHT31;53678;39.642;22.430;2022-09-09T00:15:59;21.50;73.06
65478;SHT31;53678;39.642;22.430;2022-09-09T00:21:11;21.35;74.02
65478;SHT31;53678;39.642;22.430;2022-09-09T00:23:48;21.35;74.11
65478;SHT31;53678;39.642;22.430;2022-09-09T00:26:26;21.42;73.50
65478;SHT31;53678;39.642;22.430;2022-09-09T00:29:00;21.39;73.76
65478;SHT31;53678;39.642;22.430;2022-09-09T00:31:31;21.21;74.28
65478;SHT31;53678;39.642;22.430;2022-09-09T00:34:21;20.90;75.91
65478;SHT31;53678;39.642;22.430;2022-09-09T00:36:50;20.83;76.22
65478;SHT31;53678;39.642;22.430;2022-09-09T00:42:10;21.01;75.33
65478;SHT31;53678;39.642;22.430;2022-09-09T00:44:38;21.12;75.10
65478;SHT31;53678;39.642;22.430;2022-09-09T00:50:35;21.13;74.66
65478;SHT31;53678;39.642;22.430;2022-09-09T00:56:13;21.23;74.35
65478;SHT31;53678;39.642;22.430;2022-09-09T00:58:49;21.26;74.46
65478;SHT31;53678;39.642;22.430;2022-09-09T01:01:21;21.33;74.25
65478;SHT31;53678;39.642;22.430;2022-09-09T01:03:53;21.28;74.44
65478;SHT31;53678;39.642;22.430;2022-09-09T01:11:24;21.21;74.82
65478;SHT31;53678;39.642;22.430;2022-09-09T01:14:03;21.05;75.32
65478;SHT31;53678;39.642;22.430;2022-09-09T01:16:36;20.78;76.19
65478;SHT31;53678;39.642;22.430;2022-09-09T01:19:02;20.65;76.77
65478;SHT31;53678;39.642;22.430;2022-09-09T01:21:53;20.58;77.19
65478;SHT31;53678;39.642;22.430;2022-09-09T01:24:43;20.78;76.39
65478;SHT31;53678;39.642;22.430;2022-09-09T01:27:34;20.90;76.12
65478;SHT31;53678;39.642;22.430;2022-09-09T01:30:08;20.92;75.98
65478;SHT31;53678;39.642;22.430;2022-09-09T01:32:42;20.91;75.88
65478;SHT31;53678;39.642;22.430;2022-09-09T01:37:47;20.84;76.29
65478;SHT31;53678;39.642;22.430;2022-09-09T01:40:14;20.81;76.18
65478;SHT31;53678;39.642;22.430;2022-09-09T01:42:41;20.61;76.98
65478;SHT31;53678;39.642;22.430;2022-09-09T01:45:07;20.68;76.81
65478;SHT31;53678;39.642;22.430;2022-09-09T01:47:34;20.73;76.33
65478;SHT31;53678;39.642;22.430;2022-09-09T01:50:15;20.74;76.39
65478;SHT31;53678;39.642;22.430;2022-09-09T01:52:47;20.78;76.40
65478;SHT31;53678;39.642;22.430;2022-09-09T01:55:16;20.90;75.88
65478;SHT31;53678;39.642;22.430;2022-09-09T01:58:32;20.91;75.51
65478;SHT31;53678;39.642;22.430;2022-09-09T02:04:27;20.78;76.18
65478;SHT31;53678;39.642;22.430;2022-09-09T02:06:57;20.78;76.03
65478;SHT31;53678;39.642;22.430;2022-09-09T02:09:29;20.80;75.94
65478;SHT31;53678;39.642;22.430;2022-09-09T02:12:08;20.75;76.07
65478;SHT31;53678;39.642;22.430;2022-09-09T02:14:57;20.78;75.71
65478;SHT31;53678;39.642;22.430;2022-09-09T02:17:34;20.96;75.11
65478;SHT31;53678;39.642;22.430;2022-09-09T02:20:10;20.95;74.92
65478;SHT31;53678;39.642;22.430;2022-09-09T02:22:48;20.81;75.42
65478;SHT31;53678;39.642;22.430;2022-09-09T02:25:19;20.65;75.85
65478;SHT31;53678;39.642;22.430;2022-09-09T02:27:47;20.61;75.89
65478;SHT31;53678;39.642;22.430;2022-09-09T02:30:15;20.65;76.00
65478;SHT31;53678;39.642;22.430;2022-09-09T02:32:48;20.67;75.90
65478;SHT31;53678;39.642;22.430;2022-09-09T02:35:21;20.65;76.06
65478;SHT31;53678;39.642;22.430;2022-09-09T02:37:51;20.55;76.32
65478;SHT31;53678;39.642;22.430;2022-09-09T02:40:19;20.54;76.25
65478;SHT31;53678;39.642;22.430;2022-09-09T02:42:50;20.51;76.50
65478;SHT31;53678;39.642;22.430;2022-09-09T02:45:22;20.50;76.37
65478;SHT31;53678;39.642;22.430;2022-09-09T02:53:18;20.43;76.74
65478;SHT31;53678;39.642;22.430;2022-09-09T02:56:00;20.46;76.69
65478;SHT31;53678;39.642;22.430;2022-09-09T02:58:32;20.53;76.49
65478;SHT31;53678;39.642;22.430;2022-09-09T03:01:03;20.34;76.56
65478;SHT31;53678;39.642;22.430;2022-09-09T03:03:30;20.19;77.48
65478;SHT31;53678;39.642;22.430;2022-09-09T03:05:58;20.27;77.97
65478;SHT31;53678;39.642;22.430;2022-09-09T03:08:26;19.96;79.33
65478;SHT31;53678;39.642;22.430;2022-09-09T03:10:58;19.83;79.67
65478;SHT31;53678;39.642;22.430;2022-09-09T03:13:26;19.88;79.17
65478;SHT31;53678;39.642;22.430;2022-09-09T03:15:52;19.88;79.32
65478;SHT31;53678;39.642;22.430;2022-09-09T03:18:20;20.00;78.95
65478;SHT31;53678;39.642;22.430;2022-09-09T03:20:49;20.10;78.30
65478;SHT31;53678;39.642;22.430;2022-09-09T03:23:17;20.16;78.03
65478;SHT31;53678;39.642;22.430;2022-09-09T03:25:48;20.30;77.89
65478;SHT31;53678;39.642;22.430;2022-09-09T03:28:15;20.33;77.31
65478;SHT31;53678;39.642;22.430;2022-09-09T03:30:42;20.33;77.33
65478;SHT31;53678;39.642;22.430;2022-09-09T03:33:08;20.34;77.20
65478;SHT31;53678;39.642;22.430;2022-09-09T03:35:34;20.37;77.09
65478;SHT31;53678;39.642;22.430;2022-09-09T03:38:00;20.53;76.55
65478;SHT31;53678;39.642;22.430;2022-09-09T03:40:28;20.57;76.21
65478;SHT31;53678;39.642;22.430;2022-09-09T03:42:54;20.67;76.17
65478;SHT31;53678;39.642;22.430;2022-09-09T03:45:20;20.68;75.49
65478;SHT31;53678;39.642;22.430;2022-09-09T03:47:46;20.64;75.81
65478;SHT31;53678;39.642;22.430;2022-09-09T03:50:12;20.65;75.70
65478;SHT31;53678;39.642;22.430;2022-09-09T03:52:43;20.57;75.83
65478;SHT31;53678;39.642;22.430;2022-09-09T03:55:18;20.51;76.05
65478;SHT31;53678;39.642;22.430;2022-09-09T03:57:44;20.63;75.96
65478;SHT31;53678;39.642;22.430;2022-09-09T04:00:12;20.71;75.36
65478;SHT31;53678;39.642;22.430;2022-09-09T04:02:51;20.67;75.58
65478;SHT31;53678;39.642;22.430;2022-09-09T04:05:19;20.60;75.84
65478;SHT31;53678;39.642;22.430;2022-09-09T04:07:46;20.40;77.00
65478;SHT31;53678;39.642;22.430;2022-09-09T04:10:13;20.34;77.62
65478;SHT31;53678;39.642;22.430;2022-09-09T04:12:39;20.43;77.41
65478;SHT31;53678;39.642;22.430;2022-09-09T04:15:06;20.51;77.35
65478;SHT31;53678;39.642;22.430;2022-09-09T04:17:33;20.58;77.42
65478;SHT31;53678;39.642;22.430;2022-09-09T04:19:59;20.73;76.66
65478;SHT31;53678;39.642;22.430;2022-09-09T04:22:26;21.04;75.99
65478;SHT31;53678;39.642;22.430;2022-09-09T04:24:53;20.96;76.14
65478;SHT31;53678;39.642;22.430;2022-09-09T04:27:19;21.09;75.95
65478;SHT31;53678;39.642;22.430;2022-09-09T04:29:45;21.50;74.93
65478;SHT31;53678;39.642;22.430;2022-09-09T04:32:12;22.07;73.19
65478;SHT31;53678;39.642;22.430;2022-09-09T04:34:39;22.27;72.01
65478;SHT31;53678;39.642;22.430;2022-09-09T04:37:08;22.49;71.70
65478;SHT31;53678;39.642;22.430;2022-09-09T04:39:34;22.70;71.04
65478;SHT31;53678;39.642;22.430;2022-09-09T04:42:00;22.85;70.84
65478;SHT31;53678;39.642;22.430;2022-09-09T04:44:26;23.04;69.99
65478;SHT31;53678;39.642;22.430;2022-09-09T04:46:52;23.02;70.01
65478;SHT31;53678;39.642;22.430;2022-09-09T04:49:19;24.06;67.68
65478;SHT31;53678;39.642;22.430;2022-09-09T04:51:45;24.60;65.98
65478;SHT31;53678;39.642;22.430;2022-09-09T04:54:12;24.75;64.52
65478;SHT31;53678;39.642;22.430;2022-09-09T04:56:40;24.96;64.10
65478;SHT31;53678;39.642;22.430;2022-09-09T04:59:08;25.19;64.20
65478;SHT31;53678;39.642;22.430;2022-09-09T05:01:41;24.51;64.88
65478;SHT31;53678;39.642;22.430;2022-09-09T05:04:08;25.53;62.50
65478;SHT31;53678;39.642;22.430;2022-09-09T05:06:34;25.02;62.94
65478;SHT31;53678;39.642;22.430;2022-09-09T05:09:03;25.12;64.33
65478;SHT31;53678;39.642;22.430;2022-09-09T05:11:31;25.56;62.37
65478;SHT31;53678;39.642;22.430;2022-09-09T05:14:20;26.08;61.29
65478;SHT31;53678;39.642;22.430;2022-09-09T05:16:46;25.59;62.24
65478;SHT31;53678;39.642;22.430;2022-09-09T05:19:13;26.39;60.07
65478;SHT31;53678;39.642;22.430;2022-09-09T05:21:48;24.39;64.70
65478;SHT31;53678;39.642;22.430;2022-09-09T05:24:19;22.83;69.77
65478;SHT31;53678;39.642;22.430;2022-09-09T05:26:48;23.23;68.68
65478;SHT31;53678;39.642;22.430;2022-09-09T05:29:14;25.15;63.26
65478;SHT31;53678;39.642;22.430;2022-09-09T05:31:40;26.01;60.53
65478;SHT31;53678;39.642;22.430;2022-09-09T05:34:11;26.68;58.95
65478;SHT31;53678;39.642;22.430;2022-09-09T05:36:37;27.11;57.57
65478;SHT31;53678;39.642;22.430;2022-09-09T05:39:03;26.97;57.35
65478;SHT31;53678;39.642;22.430;2022-09-09T05:41:31;26.66;58.57
65478;SHT31;53678;39.642;22.430;2022-09-09T05:44:00;27.40;56.50
65478;SHT31;53678;39.642;22.430;2022-09-09T05:46:26;28.27;53.84
65478;SHT31;53678;39.642;22.430;2022-09-09T05:48:53;28.19;53.52
65478;SHT31;53678;39.642;22.430;2022-09-09T05:51:26;27.54;55.42
65478;SHT31;53678;39.642;22.430;2022-09-09T05:53:56;27.89;54.90
65478;SHT31;53678;39.642;22.430;2022-09-09T05:56:29;28.70;52.37
65478;SHT31;53678;39.642;22.430;2022-09-09T05:58:56;28.86;52.09
65478;SHT31;53678;39.642;22.430;2022-09-09T06:01:25;28.43;53.65
65478;SHT31;53678;39.642;22.430;2022-09-09T06:03:55;28.10;54.49
65478;SHT31;53678;39.642;22.430;2022-09-09T06:06:29;28.44;53.94
65478;SHT31;53678;39.642;22.430;2022-09-09T06:08:57;28.08;53.91
65478;SHT31;53678;39.642;22.430;2022-09-09T06:11:33;27.78;55.17
65478;SHT31;53678;39.642;22.430;2022-09-09T06:14:03;27.18;57.14
65478;SHT31;53678;39.642;22.430;2022-09-09T06:16:30;27.13;56.94
65478;SHT31;53678;39.642;22.430;2022-09-09T06:18:59;26.69;57.66
65478;SHT31;53678;39.642;22.430;2022-09-09T06:21:29;26.41;58.38
65478;SHT31;53678;39.642;22.430;2022-09-09T06:23:56;26.25;59.28
65478;SHT31;53678;39.642;22.430;2022-09-09T06:26:24;26.11;59.99
65478;SHT31;53678;39.642;22.430;2022-09-09T06:28:53;26.00;59.97
65478;SHT31;53678;39.642;22.430;2022-09-09T06:31:22;25.91;60.18
65478;SHT31;53678;39.642;22.430;2022-09-09T06:33:50;26.29;59.56
65478;SHT31;53678;39.642;22.430;2022-09-09T06:36:20;26.31;59.73
65478;SHT31;53678;39.642;22.430;2022-09-09T06:38:46;26.17;59.84
65478;SHT31;53678;39.642;22.430;2022-09-09T06:41:16;26.27;59.70
65478;SHT31;53678;39.642;22.430;2022-09-09T06:43:47;26.55;59.03
65478;SHT31;53678;39.642;22.430;2022-09-09T06:46:21;26.41;59.69
65478;SHT31;53678;39.642;22.430;2022-09-09T06:48:54;26.17;60.20
65478;SHT31;53678;39.642;22.430;2022-09-09T06:51:28;26.21;60.12
65478;SHT31;53678;39.642;22.430;2022-09-09T06:53:56;26.52;59.11
65478;SHT31;53678;39.642;22.430;2022-09-09T06:56:34;26.65;58.81
65478;SHT31;53678;39.642;22.430;2022-09-09T06:59:07;26.73;58.95
65478;SHT31;53678;39.642;22.430;2022-09-09T07:01:38;26.99;57.88
65478;SHT31;53678;39.642;22.430;2022-09-09T07:04:09;26.86;58.28
65478;SHT31;53678;39.642;22.430;2022-09-09T07:06:40;26.90;57.80
65478;SHT31;53678;39.642;22.430;2022-09-09T07:09:12;26.90;57.92
65478;SHT31;53678;39.642;22.430;2022-09-09T07:11:43;27.14;57.55
65478;SHT31;53678;39.642;22.430;2022-09-09T07:14:11;27.20;56.69
65478;SHT31;53678;39.642;22.430;2022-09-09T07:16:41;27.40;56.13
65478;SHT31;53678;39.642;22.430;2022-09-09T07:19:09;27.62;55.64
65478;SHT31;53678;39.642;22.430;2022-09-09T07:21:36;27.66;54.93
65478;SHT31;53678;39.642;22.430;2022-09-09T07:24:02;28.13;54.36
65478;SHT31;53678;39.642;22.430;2022-09-09T07:26:30;28.05;53.65
65478;SHT31;53678;39.642;22.430;2022-09-09T07:28:59;27.59;54.95
65478;SHT31;53678;39.642;22.430;2022-09-09T07:31:26;27.55;55.15
65478;SHT31;53678;39.642;22.430;2022-09-09T07:33:53;27.68;54.59
65478;SHT31;53678;39.642;22.430;2022-09-09T07:36:24;26.69;57.32
65478;SHT31;53678;39.642;22.430;2022-09-09T07:38:54;27.23;54.35
65478;SHT31;53678;39.642;22.430;2022-09-09T07:43:52;27.31;55.07
65478;SHT31;53678;39.642;22.430;2022-09-09T07:46:21;27.38;54.83
65478;SHT31;53678;39.642;22.430;2022-09-09T07:48:50;27.45;54.73
65478;SHT31;53678;39.642;22.430;2022-09-09T07:51:26;26.72;55.67
65478;SHT31;53678;39.642;22.430;2022-09-09T07:53:58;26.82;55.64
65478;SHT31;53678;39.642;22.430;2022-09-09T07:56:26;26.99;54.88
65478;SHT31;53678;39.642;22.430;2022-09-09T07:58:53;27.31;53.43
65478;SHT31;53678;39.642;22.430;2022-09-09T08:01:26;27.99;52.57
65478;SHT31;53678;39.642;22.430;2022-09-09T08:04:03;28.49;51.63
65478;SHT31;53678;39.642;22.430;2022-09-09T08:06:35;28.78;51.18
65478;SHT31;53678;39.642;22.430;2022-09-09T08:09:02;28.98;50.45
65478;SHT31;53678;39.642;22.430;2022-09-09T08:11:30;28.81;50.30
65478;SHT31;53678;39.642;22.430;2022-09-09T08:13:59;28.43;51.42
65478;SHT31;53678;39.642;22.430;2022-09-09T08:16:31;28.20;52.34
65478;SHT31;53678;39.642;22.430;2022-09-09T08:18:58;28.32;52.57
65478;SHT31;53678;39.642;22.430;2022-09-09T08:21:27;28.39;52.58
65478;SHT31;53678;39.642;22.430;2022-09-09T08:23:58;28.44;52.57
65478;SHT31;53678;39.642;22.430;2022-09-09T08:26:27;28.80;51.75
65478;SHT31;53678;39.642;22.430;2022-09-09T08:28:55;28.98;51.06
65478;SHT31;53678;39.642;22.430;2022-09-09T08:31:26;29.26;50.14
65478;SHT31;53678;39.642;22.430;2022-09-09T08:33:55;28.81;51.62
65478;SHT31;53678;39.642;22.430;2022-09-09T08:36:25;28.36;53.15
65478;SHT31;53678;39.642;22.430;2022-09-09T08:38:54;28.78;51.55
65478;SHT31;53678;39.642;22.430;2022-09-09T08:53:03;29.57;49.28
65478;SHT31;53678;39.642;22.430;2022-09-09T08:58:28;29.42;47.87
65478;SHT31;53678;39.642;22.430;2022-09-09T09:11:50;29.36;48.40
65478;SHT31;53678;39.642;22.430;2022-09-09T09:14:21;29.59;47.98
65478;SHT31;53678;39.642;22.430;2022-09-09T09:19:46;29.49;48.16
65478;SHT31;53678;39.642;22.430;2022-09-09T09:22:19;29.66;47.80
65478;SHT31;53678;39.642;22.430;2022-09-09T09:24:56;29.65;47.58
65478;SHT31;53678;39.642;22.430;2022-09-09T09:27:33;29.04;48.03
65478;SHT31;53678;39.642;22.430;2022-09-09T09:30:21;29.18;48.09
65478;SHT31;53678;39.642;22.430;2022-09-09T09:32:59;29.40;47.79
65478;SHT31;53678;39.642;22.430;2022-09-09T09:35:27;29.32;47.69
65478;SHT31;53678;39.642;22.430;2022-09-09T09:37:53;29.46;47.30
65478;SHT31;53678;39.642;22.430;2022-09-09T09:40:21;29.25;48.00
65478;SHT31;53678;39.642;22.430;2022-09-09T09:45:43;29.87;46.41
65478;SHT31;53678;39.642;22.430;2022-09-09T09:48:13;29.53;46.94
65478;SHT31;53678;39.642;22.430;2022-09-09T09:50:55;29.62;47.10
65478;SHT31;53678;39.642;22.430;2022-09-09T09:53:30;29.66;46.93
65478;SHT31;53678;39.642;22.430;2022-09-09T09:56:18;29.60;46.90
65478;SHT31;53678;39.642;22.430;2022-09-09T09:58:51;29.42;46.53
65478;SHT31;53678;39.642;22.430;2022-09-09T10:01:26;29.52;46.58
65478;SHT31;53678;39.642;22.430;2022-09-09T10:06:39;29.20;46.91
65478;SHT31;53678;39.642;22.430;2022-09-09T10:12:01;29.74;46.10
65478;SHT31;53678;39.642;22.430;2022-09-09T10:14:40;29.88;45.24
65478;SHT31;53678;39.642;22.430;2022-09-09T10:26:00;28.80;47.59
65478;SHT31;53678;39.642;22.430;2022-09-09T10:28:37;28.95;46.98
65478;SHT31;53678;39.642;22.430;2022-09-09T10:34:02;29.91;45.76
65478;SHT31;53678;39.642;22.430;2022-09-09T10:36:32;30.18;45.21
65478;SHT31;53678;39.642;22.430;2022-09-09T10:39:05;30.23;44.47
65478;SHT31;53678;39.642;22.430;2022-09-09T10:51:22;30.34;44.11
65478;SHT31;53678;39.642;22.430;2022-09-09T10:55:55;30.73;43.64
65478;SHT31;53678;39.642;22.430;2022-09-09T11:01:40;30.99;42.82
65478;SHT31;53678;39.642;22.430;2022-09-09T11:04:16;31.11;42.38
65478;SHT31;53678;39.642;22.430;2022-09-09T11:06:47;30.86;42.43
65478;SHT31;53678;39.642;22.430;2022-09-09T11:09:21;30.84;42.67
65478;SHT31;53678;39.642;22.430;2022-09-09T11:11:56;30.99;42.30
65478;SHT31;53678;39.642;22.430;2022-09-09T11:14:43;30.94;42.15
65478;SHT31;53678;39.642;22.430;2022-09-09T11:17:15;30.94;42.34
65478;SHT31;53678;39.642;22.430;2022-09-09T11:19:43;30.83;42.07
65478;SHT31;53678;39.642;22.430;2022-09-09T11:22:19;30.54;42.72
65478;SHT31;53678;39.642;22.430;2022-09-09T11:30:43;30.73;42.42
65478;SHT31;53678;39.642;22.430;2022-09-09T11:38:46;31.02;42.53
65478;SHT31;53678;39.642;22.430;2022-09-09T11:41:14;31.07;42.96
65478;SHT31;53678;39.642;22.430;2022-09-09T11:46:07;31.38;42.77
65478;SHT31;53678;39.642;22.430;2022-09-09T11:48:39;31.23;42.42
65478;SHT31;53678;39.642;22.430;2022-09-09T11:51:11;31.13;42.51
65478;SHT31;53678;39.642;22.430;2022-09-09T11:53:53;30.94;43.02
65478;SHT31;53678;39.642;22.430;2022-09-09T11:56:29;31.34;42.98
65478;SHT31;53678;39.642;22.430;2022-09-09T11:58:57;31.44;42.86
65478;SHT31;53678;39.642;22.430;2022-09-09T12:01:35;31.35;42.81
65478;SHT31;53678;39.642;22.430;2022-09-09T12:06:57;31.41;43.56
65478;SHT31;53678;39.642;22.430;2022-09-09T12:09:31;31.45;43.49
65478;SHT31;53678;39.642;22.430;2022-09-09T12:17:22;31.57;43.17
65478;SHT31;53678;39.642;22.430;2022-09-09T12:20:15;31.37;43.61
65478;SHT31;53678;39.642;22.430;2022-09-09T12:22:59;31.17;44.09
65478;SHT31;53678;39.642;22.430;2022-09-09T12:34:49;31.35;43.33
65478;SHT31;53678;39.642;22.430;2022-09-09T12:37:21;31.65;42.83
65478;SHT31;53678;39.642;22.430;2022-09-09T12:39:58;31.74;42.25
65478;SHT31;53678;39.642;22.430;2022-09-09T12:42:26;31.78;41.87
65478;SHT31;53678;39.642;22.430;2022-09-09T12:45:00;31.71;42.06
65478;SHT31;53678;39.642;22.430;2022-09-09T12:47:42;31.67;41.76
65478;SHT31;53678;39.642;22.430;2022-09-09T12:50:30;31.69;41.86
65478;SHT31;53678;39.642;22.430;2022-09-09T12:53:23;31.55;41.90
65478;SHT31;53678;39.642;22.430;2022-09-09T12:56:07;31.75;41.92
65478;SHT31;53678;39.642;22.430;2022-09-09T12:58:36;31.84;41.62
65478;SHT31;53678;39.642;22.430;2022-09-09T13:01:04;31.86;41.59
65478;SHT31;53678;39.642;22.430;2022-09-09T13:03:32;31.69;41.95
65478;SHT31;53678;39.642;22.430;2022-09-09T13:06:11;31.60;42.38
65478;SHT31;53678;39.642;22.430;2022-09-09T13:08:38;31.67;42.29
65478;SHT31;53678;39.642;22.430;2022-09-09T13:11:10;31.68;42.16
65478;SHT31;53678;39.642;22.430;2022-09-09T13:13:40;31.57;42.18
65478;SHT31;53678;39.642;22.430;2022-09-09T13:16:19;31.54;42.38
65478;SHT31;53678;39.642;22.430;2022-09-09T13:18:46;31.67;42.16
65478;SHT31;53678;39.642;22.430;2022-09-09T13:21:12;31.79;41.80
65478;SHT31;53678;39.642;22.430;2022-09-09T13:23:39;31.78;41.78
65478;SHT31;53678;39.642;22.430;2022-09-09T13:26:25;31.74;41.95
65478;SHT31;53678;39.642;22.430;2022-09-09T13:28:53;31.68;41.15
65478;SHT31;53678;39.642;22.430;2022-09-09T13:31:27;31.85;41.25
65478;SHT31;53678;39.642;22.430;2022-09-09T13:33:53;31.89;40.86
65478;SHT31;53678;39.642;22.430;2022-09-09T13:36:29;31.84;40.73
65478;SHT31;53678;39.642;22.430;2022-09-09T13:38:57;31.92;40.50
65478;SHT31;53678;39.642;22.430;2022-09-09T13:41:32;31.71;40.83
65478;SHT31;53678;39.642;22.430;2022-09-09T13:44:01;31.92;39.42
65478;SHT31;53678;39.642;22.430;2022-09-09T13:46:39;32.06;38.69
65478;SHT31;53678;39.642;22.430;2022-09-09T13:54:06;31.89;38.05
65478;SHT31;53678;39.642;22.430;2022-09-09T13:56:35;31.90;36.79
65478;SHT31;53678;39.642;22.430;2022-09-09T13:59:03;31.84;36.36
65478;SHT31;53678;39.642;22.430;2022-09-09T14:01:29;31.88;36.48
65478;SHT31;53678;39.642;22.430;2022-09-09T14:03:55;31.82;36.19
65478;SHT31;53678;39.642;22.430;2022-09-09T14:06:21;31.81;37.01
65478;SHT31;53678;39.642;22.430;2022-09-09T14:08:49;31.61;37.18
65478;SHT31;53678;39.642;22.430;2022-09-09T14:11:20;31.58;34.91
65478;SHT31;53678;39.642;22.430;2022-09-09T14:13:48;31.62;34.51
65478;SHT31;53678;39.642;22.430;2022-09-09T14:16:21;31.65;34.43
65478;SHT31;53678;39.642;22.430;2022-09-09T14:18:48;31.79;34.04
65478;SHT31;53678;39.642;22.430;2022-09-09T14:21:25;31.72;33.79
65478;SHT31;53678;39.642;22.430;2022-09-09T14:23:56;31.72;33.91
65478;SHT31;53678;39.642;22.430;2022-09-09T14:26:24;31.71;33.77
65478;SHT31;53678;39.642;22.430;2022-09-09T14:28:50;31.74;33.66
65478;SHT31;53678;39.642;22.430;2022-09-09T14:31:17;31.69;34.33
65478;SHT31;53678;39.642;22.430;2022-09-09T14:33:44;31.75;33.18
65478;SHT31;53678;39.642;22.430;2022-09-09T14:36:10;31.78;33.13
65478;SHT31;53678;39.642;22.430;2022-09-09T14:38:38;31.60;33.10
65478;SHT31;53678;39.642;22.430;2022-09-09T14:41:17;31.52;33.13
65478;SHT31;53678;39.642;22.430;2022-09-09T14:43:44;31.61;33.33
65478;SHT31;53678;39.642;22.430;2022-09-09T14:46:12;31.69;33.69
65478;SHT31;53678;39.642;22.430;2022-09-09T14:48:38;31.79;33.45
65478;SHT31;53678;39.642;22.430;2022-09-09T14:51:10;31.86;33.44
65478;SHT31;53678;39.642;22.430;2022-09-09T14:53:39;31.79;33.16
65478;SHT31;53678;39.642;22.430;2022-09-09T14:56:25;31.75;33.59
65478;SHT31;53678;39.642;22.430;2022-09-09T14:58:56;31.82;33.53
65478;SHT31;53678;39.642;22.430;2022-09-09T15:01:23;31.72;33.37
65478;SHT31;53678;39.642;22.430;2022-09-09T15:03:52;31.52;33.27
65478;SHT31;53678;39.642;22.430;2022-09-09T15:06:20;31.54;33.52
65478;SHT31;53678;39.642;22.430;2022-09-09T15:08:46;31.40;33.74
65478;SHT31;53678;39.642;22.430;2022-09-09T15:11:13;31.29;40.77
65478;SHT31;53678;39.642;22.430;2022-09-09T15:13:40;30.90;43.59
65478;SHT31;53678;39.642;22.430;2022-09-09T15:16:31;30.68;43.86
65478;SHT31;53678;39.642;22.430;2022-09-09T15:19:16;30.65;44.15
65478;SHT31;53678;39.642;22.430;2022-09-09T15:21:42;30.63;45.10
65478;SHT31;53678;39.642;22.430;2022-09-09T15:24:08;30.55;45.71
65478;SHT31;53678;39.642;22.430;2022-09-09T15:26:34;30.46;44.59
65478;SHT31;53678;39.642;22.430;2022-09-09T15:29:04;30.49;45.66
65478;SHT31;53678;39.642;22.430;2022-09-09T15:31:31;30.35;46.12
65478;SHT31;53678;39.642;22.430;2022-09-09T15:34:02;30.10;48.92
65478;SHT31;53678;39.642;22.430;2022-09-09T15:36:32;29.83;50.12
65478;SHT31;53678;39.642;22.430;2022-09-09T15:39:03;29.56;51.32
65478;SHT31;53678;39.642;22.430;2022-09-09T15:41:29;29.53;52.11
65478;SHT31;53678;39.642;22.430;2022-09-09T15:43:57;29.30;51.95
65478;SHT31;53678;39.642;22.430;2022-09-09T15:46:29;29.22;52.62
65478;SHT31;53678;39.642;22.430;2022-09-09T15:49:08;28.95;53.45
65478;SHT31;53678;39.642;22.430;2022-09-09T15:51:45;28.78;53.90
65478;SHT31;53678;39.642;22.430;2022-09-09T15:54:26;28.71;54.65
65478;SHT31;53678;39.642;22.430;2022-09-09T15:57:00;28.51;55.47
65478;SHT31;53678;39.642;22.430;2022-09-09T15:59:29;28.35;56.01
65478;SHT31;53678;39.642;22.430;2022-09-09T16:01:57;28.36;55.94
65478;SHT31;53678;39.642;22.430;2022-09-09T16:04:27;28.09;56.53
65478;SHT31;53678;39.642;22.430;2022-09-09T16:07:00;27.96;56.86
65478;SHT31;53678;39.642;22.430;2022-09-09T16:09:27;27.95;57.28
65478;SHT31;53678;39.642;22.430;2022-09-09T16:11:59;27.75;57.95
65478;SHT31;53678;39.642;22.430;2022-09-09T16:14:27;27.57;58.50
65478;SHT31;53678;39.642;22.430;2022-09-09T16:16:53;27.43;59.04
65478;SHT31;53678;39.642;22.430;2022-09-09T16:19:20;27.51;58.91
65478;SHT31;53678;39.642;22.430;2022-09-09T16:21:48;27.40;59.15
65478;SHT31;53678;39.642;22.430;2022-09-09T16:24:17;27.31;59.69
65478;SHT31;53678;39.642;22.430;2022-09-09T16:26:46;27.18;60.41
65478;SHT31;53678;39.642;22.430;2022-09-09T16:29:13;26.96;61.20
65478;SHT31;53678;39.642;22.430;2022-09-09T16:31:40;26.87;61.60
65478;SHT31;53678;39.642;22.430;2022-09-09T16:34:06;26.89;61.54
65478;SHT31;53678;39.642;22.430;2022-09-09T16:36:35;26.76;61.82
65478;SHT31;53678;39.642;22.430;2022-09-09T16:39:04;26.66;61.97
65478;SHT31;53678;39.642;22.430;2022-09-09T16:41:31;26.45;62.75
65478;SHT31;53678;39.642;22.430;2022-09-09T16:43:59;26.42;62.95
65478;SHT31;53678;39.642;22.430;2022-09-09T16:46:26;26.27;63.58
65478;SHT31;53678;39.642;22.430;2022-09-09T16:48:53;26.24;63.66
65478;SHT31;53678;39.642;22.430;2022-09-09T16:51:33;26.24;63.94
65478;SHT31;53678;39.642;22.430;2022-09-09T16:54:01;26.17;64.09
65478;SHT31;53678;39.642;22.430;2022-09-09T16:56:30;26.04;64.73
65478;SHT31;53678;39.642;22.430;2022-09-09T16:59:00;25.94;64.95
65478;SHT31;53678;39.642;22.430;2022-09-09T17:01:29;25.71;65.65
65478;SHT31;53678;39.642;22.430;2022-09-09T17:04:01;25.71;65.72
65478;SHT31;53678;39.642;22.430;2022-09-09T17:06:29;25.67;66.15
65478;SHT31;53678;39.642;22.430;2022-09-09T17:08:56;25.71;65.88
65478;SHT31;53678;39.642;22.430;2022-09-09T17:11:23;25.60;66.51
65478;SHT31;53678;39.642;22.430;2022-09-09T17:13:52;25.54;66.55
65478;SHT31;53678;39.642;22.430;2022-09-09T17:16:20;25.40;66.95
65478;SHT31;53678;39.642;22.430;2022-09-09T17:18:50;25.40;67.21
65478;SHT31;53678;39.642;22.430;2022-09-09T17:21:22;25.33;67.60
65478;SHT31;53678;39.642;22.430;2022-09-09T17:23:53;25.26;67.86
65478;SHT31;53678;39.642;22.430;2022-09-09T17:26:25;25.30;67.70
65478;SHT31;53678;39.642;22.430;2022-09-09T17:28:57;25.19;68.10
65478;SHT31;53678;39.642;22.430;2022-09-09T17:31:24;24.98;68.88
65478;SHT31;53678;39.642;22.430;2022-09-09T17:33:51;25.08;68.50
65478;SHT31;53678;39.642;22.430;2022-09-09T17:36:23;25.02;68.89
65478;SHT31;53678;39.642;22.430;2022-09-09T17:38:50;25.02;69.03
65478;SHT31;53678;39.642;22.430;2022-09-09T17:41:26;25.05;69.05
65478;SHT31;53678;39.642;22.430;2022-09-09T17:43:52;24.92;69.63
65478;SHT31;53678;39.642;22.430;2022-09-09T17:46:19;24.71;70.48
65478;SHT31;53678;39.642;22.430;2022-09-09T17:48:49;24.53;71.35
65478;SHT31;53678;39.642;22.430;2022-09-09T17:51:18;24.56;71.51